createdAt,value
2018-02-25T00:01:47.520Z,5.50
2018-02-25T00:04:14.503Z,5.50
2018-02-25T00:06:41.494Z,5.50
2018-02-25T00:09:08.471Z,5.50
2018-02-25T00:11:36.231Z,5.50
2018-02-25T00:14:03.975Z,5.50
2018-02-25T00:16:30.963Z,5.50
2018-02-25T00:18:57.946Z,5.50
2018-02-25T00:21:25.700Z,5.50
2018-02-25T00:23:52.692Z,5.40
2018-02-25T00:26:20.463Z,5.50
2018-02-25T00:28:48.211Z,5.50
2018-02-25T00:31:15.191Z,5.50
2018-02-25T00:33:42.175Z,5.50
2018-02-25T00:36:09.160Z,5.40
2018-02-25T00:38:36.925Z,5.40
2018-02-25T00:41:04.675Z,5.40
2018-02-25T00:43:32.438Z,5.50
2018-02-25T00:45:59.418Z,5.40
2018-02-25T00:48:26.405Z,5.40
2018-02-25T00:50:53.398Z,5.40
2018-02-25T00:53:21.146Z,5.40
2018-02-25T00:55:48.906Z,5.40
2018-02-25T00:58:16.665Z,5.40
2018-02-25T01:00:43.648Z,5.40
2018-02-25T01:03:10.643Z,5.40
2018-02-25T01:05:37.628Z,5.40
2018-02-25T01:08:04.606Z,5.40
2018-02-25T01:10:31.594Z,5.40
2018-02-25T01:12:59.344Z,5.40
2018-02-25T01:15:26.326Z,5.40
2018-02-25T01:17:53.308Z,5.40
2018-02-25T01:20:20.288Z,5.40
2018-02-25T01:22:47.271Z,5.40
2018-02-25T01:25:14.259Z,5.40
2018-02-25T01:27:41.238Z,5.40
2018-02-25T01:30:09.002Z,5.40
2018-02-25T01:32:36.743Z,5.40
2018-02-25T01:35:03.729Z,5.30
2018-02-25T01:37:30.715Z,5.40
2018-02-25T01:39:57.707Z,5.40
2018-02-25T01:42:25.456Z,5.30
2018-02-25T01:44:53.207Z,5.30
2018-02-25T01:47:20.196Z,5.40
2018-02-25T01:49:47.192Z,5.40
2018-02-25T01:52:14.178Z,5.30
2018-02-25T01:54:41.154Z,5.30
2018-02-25T01:57:08.144Z,5.30
2018-02-25T01:59:35.902Z,5.30
2018-02-25T02:02:02.892Z,5.30
2018-02-25T02:04:29.883Z,5.30
2018-02-25T02:06:56.868Z,5.30
2018-02-25T02:09:23.868Z,5.30
2018-02-25T02:11:50.851Z,5.30
2018-02-25T02:14:18.611Z,5.30
2018-02-25T02:16:46.359Z,5.30
2018-02-25T02:19:13.352Z,5.30
2018-02-25T02:21:40.335Z,5.30
2018-02-25T02:24:07.332Z,5.30
2018-02-25T02:26:34.316Z,5.30
2018-02-25T02:29:01.307Z,5.30
2018-02-25T02:31:28.287Z,5.30
2018-02-25T02:33:55.279Z,5.30
2018-02-25T02:36:23.033Z,5.30
2018-02-25T02:38:50.033Z,5.30
2018-02-25T02:41:17.013Z,5.30
2018-02-25T02:43:44.004Z,5.30
2018-02-25T02:46:10.991Z,5.30
2018-02-25T02:48:37.973Z,5.30
2018-02-25T02:51:05.723Z,5.20
2018-02-25T02:53:32.716Z,5.20
2018-02-25T02:55:59.700Z,5.20
2018-02-25T02:58:26.692Z,5.20
2018-02-25T03:00:53.666Z,5.20
2018-02-25T03:03:20.656Z,5.20
2018-02-25T03:05:48.407Z,5.20
2018-02-25T03:08:15.396Z,5.20
2018-02-25T03:10:42.384Z,5.20
2018-02-25T03:13:09.365Z,5.20
2018-02-25T03:15:37.107Z,5.20
2018-02-25T03:18:04.090Z,5.20
2018-02-25T03:20:31.076Z,5.20
2018-02-25T03:22:58.056Z,5.20
2018-02-25T03:25:25.816Z,5.20
2018-02-25T03:27:53.576Z,5.20
2018-02-25T03:30:20.565Z,5.20
2018-02-25T03:32:47.552Z,5.20
2018-02-25T03:35:14.540Z,5.20
2018-02-25T03:37:41.531Z,5.20
2018-02-25T03:40:08.525Z,5.20
2018-02-25T03:42:35.508Z,5.10
2018-02-25T03:45:02.504Z,5.20
2018-02-25T03:47:30.251Z,5.10
2018-02-25T03:49:57.244Z,5.10
2018-02-25T03:52:24.231Z,5.20
2018-02-25T03:54:51.220Z,5.20
2018-02-25T03:57:18.198Z,5.10
2018-02-25T03:59:45.184Z,5.10
2018-02-25T04:02:12.936Z,5.10
2018-02-25T04:04:39.918Z,5.10
2018-02-25T04:07:06.899Z,5.10
2018-02-25T04:09:33.879Z,5.10
2018-02-25T04:12:00.876Z,5.20
2018-02-25T04:14:27.867Z,5.10
2018-02-25T04:16:54.868Z,5.10
2018-02-25T04:19:21.853Z,5.10
2018-02-25T04:21:48.840Z,5.10
2018-02-25T04:24:15.836Z,5.10
2018-02-25T04:26:43.733Z,5.10
2018-02-25T04:29:11.479Z,5.10
2018-02-25T04:31:38.460Z,5.10
2018-02-25T04:34:05.451Z,5.10
2018-02-25T04:36:32.431Z,5.10
2018-02-25T04:39:00.181Z,5.10
2018-02-25T04:41:27.172Z,5.10
2018-02-25T04:43:54.144Z,5.10
2018-02-25T04:46:21.128Z,5.10
2018-02-25T04:48:48.884Z,5.10
2018-02-25T04:51:15.867Z,5.10
2018-02-25T04:53:42.860Z,5.10
2018-02-25T04:56:09.843Z,5.10
2018-02-25T04:58:36.835Z,5.10
2018-02-25T05:01:03.859Z,5.10
2018-02-25T05:03:31.807Z,5.10
2018-02-25T05:05:58.791Z,5.10
2018-02-25T05:08:25.772Z,5.10
2018-02-25T05:10:53.524Z,5.10
2018-02-25T05:13:20.507Z,5.00
2018-02-25T05:15:47.495Z,5.00
2018-02-25T05:18:14.472Z,5.00
2018-02-25T05:20:42.219Z,5.00
2018-02-25T05:23:09.202Z,5.00
2018-02-25T05:25:36.179Z,5.00
2018-02-25T05:28:03.935Z,5.10
2018-02-25T05:30:30.918Z,5.00
2018-02-25T05:32:57.904Z,5.00
2018-02-25T05:35:24.890Z,5.00
2018-02-25T05:37:51.877Z,5.00
2018-02-25T05:40:19.620Z,5.00
2018-02-25T05:42:46.612Z,5.00
2018-02-25T05:45:13.607Z,5.00
2018-02-25T05:47:40.597Z,5.00
2018-02-25T05:50:07.584Z,5.00
2018-02-25T05:52:34.567Z,5.00
2018-02-25T05:55:02.316Z,5.00
2018-02-25T05:57:30.118Z,5.00
2018-02-25T05:59:57.236Z,5.00
2018-02-25T06:02:24.305Z,5.00
2018-02-25T06:04:51.288Z,5.00
2018-02-25T06:07:18.276Z,5.00
2018-02-25T06:09:46.032Z,4.90
2018-02-25T06:12:14.313Z,5.00
2018-02-25T06:14:41.326Z,5.00
2018-02-25T06:17:08.306Z,4.90
2018-02-25T06:19:36.056Z,5.00
2018-02-25T06:22:03.040Z,4.90
2018-02-25T06:24:30.027Z,5.00
2018-02-25T06:26:57.009Z,5.00
2018-02-25T06:29:24.816Z,4.90
2018-02-25T06:31:51.949Z,4.90
2018-02-25T06:34:18.946Z,4.90
2018-02-25T06:36:45.961Z,4.90
2018-02-25T06:39:12.931Z,4.90
2018-02-25T06:41:39.925Z,4.90
2018-02-25T06:44:06.904Z,4.90
2018-02-25T06:46:33.937Z,4.90
2018-02-25T06:49:00.932Z,4.90
2018-02-25T06:51:27.927Z,4.90
2018-02-25T06:53:54.915Z,4.90
2018-02-25T06:56:22.734Z,4.90
2018-02-25T06:58:50.495Z,4.90
2018-02-25T07:01:17.489Z,4.80
2018-02-25T07:03:44.482Z,4.90
2018-02-25T07:06:11.463Z,4.90
2018-02-25T07:09:12.033Z,5.00
2018-02-25T07:11:39.025Z,5.00
2018-02-25T07:14:06.619Z,4.90
2018-02-25T07:16:34.485Z,4.90
2018-02-25T07:19:01.473Z,4.90
2018-02-25T07:21:28.651Z,4.90
2018-02-25T07:23:55.649Z,4.90
2018-02-25T07:26:22.723Z,4.90
2018-02-25T07:28:49.738Z,4.90
2018-02-25T07:31:17.509Z,4.90
2018-02-25T07:33:44.636Z,4.90
2018-02-25T07:36:11.807Z,4.90
2018-02-25T07:38:38.806Z,4.90
2018-02-25T07:41:05.842Z,4.90
2018-02-25T07:43:33.005Z,4.90
2018-02-25T07:46:00.147Z,4.90
2018-02-25T07:48:28.956Z,4.90
2018-02-25T07:50:55.996Z,4.90
2018-02-25T07:53:23.007Z,4.80
2018-02-25T07:55:50.072Z,4.80
2018-02-25T07:58:17.075Z,4.80
2018-02-25T08:00:44.105Z,4.80
2018-02-25T08:03:11.136Z,4.90
2018-02-25T08:05:38.935Z,4.80
2018-02-25T08:08:06.056Z,4.90
2018-02-25T08:10:33.051Z,4.80
2018-02-25T08:13:00.053Z,4.80
2018-02-25T08:15:27.834Z,4.80
2018-02-25T08:17:55.595Z,4.80
2018-02-25T08:20:22.622Z,4.80
2018-02-25T08:22:49.867Z,4.80
2018-02-25T08:25:17.880Z,4.80
2018-02-25T08:27:44.916Z,4.80
2018-02-25T08:30:11.928Z,4.90
2018-02-25T08:32:39.692Z,4.80
2018-02-25T08:35:06.697Z,4.80
2018-02-25T08:37:34.465Z,4.80
2018-02-25T08:40:01.979Z,4.80
2018-02-25T08:42:28.990Z,4.80
2018-02-25T08:44:56.010Z,4.80
2018-02-25T08:47:23.117Z,4.80
2018-02-25T08:49:50.132Z,4.80
2018-02-25T08:52:17.126Z,4.80
2018-02-25T08:54:44.230Z,4.80
2018-02-25T08:57:11.250Z,4.80
2018-02-25T08:59:38.309Z,4.80
2018-02-25T09:02:05.302Z,4.80
2018-02-25T09:04:32.314Z,4.80
2018-02-25T09:07:00.181Z,4.80
2018-02-25T09:09:27.194Z,4.80
2018-02-25T09:11:54.362Z,4.80
2018-02-25T09:14:21.415Z,4.70
2018-02-25T09:16:48.426Z,4.70
2018-02-25T09:19:17.113Z,4.80
2018-02-25T09:21:44.113Z,4.80
2018-02-25T09:24:11.156Z,4.70
2018-02-25T09:26:38.365Z,4.70
2018-02-25T09:29:05.363Z,4.70
2018-02-25T09:31:33.265Z,4.80
2018-02-25T09:34:00.256Z,4.70
2018-02-25T09:36:27.390Z,4.70
2018-02-25T09:38:55.288Z,4.70
2018-02-25T09:41:22.353Z,4.70
2018-02-25T09:43:49.536Z,4.70
2018-02-25T09:46:16.615Z,4.80
2018-02-25T09:48:43.612Z,4.70
2018-02-25T09:51:11.397Z,4.70
2018-02-25T09:53:38.403Z,4.70
2018-02-25T09:56:06.245Z,4.80
2018-02-25T09:58:33.244Z,4.70
2018-02-25T10:01:00.396Z,4.70
2018-02-25T10:03:27.397Z,4.70
2018-02-25T10:05:55.210Z,4.80
2018-02-25T10:08:22.257Z,4.70
2018-02-25T10:10:49.295Z,4.70
2018-02-25T10:13:16.440Z,4.70
2018-02-25T10:15:43.512Z,4.80
2018-02-25T10:18:10.506Z,4.70
2018-02-25T10:20:37.602Z,4.70
2018-02-25T10:23:04.644Z,4.70
2018-02-25T10:25:31.737Z,4.70
2018-02-25T10:27:58.807Z,4.70
2018-02-25T10:30:25.929Z,4.70
2018-02-25T10:32:53.909Z,4.70
2018-02-25T10:35:21.717Z,4.70
2018-02-25T10:37:48.887Z,4.80
2018-02-25T10:40:15.961Z,4.80
2018-02-25T10:42:43.053Z,4.80
2018-02-25T10:45:10.896Z,4.80
2018-02-25T10:47:38.704Z,4.70
2018-02-25T10:50:05.759Z,4.80
2018-02-25T10:52:32.813Z,4.80
2018-02-25T10:54:59.840Z,4.70
2018-02-25T10:57:26.852Z,4.80
2018-02-25T10:59:53.883Z,4.80
2018-02-25T11:02:20.886Z,4.80
2018-02-25T11:04:47.897Z,4.80
2018-02-25T11:07:15.692Z,4.80
2018-02-25T11:09:43.469Z,4.80
2018-02-25T11:12:10.530Z,4.80
2018-02-25T11:14:37.532Z,4.80
2018-02-25T11:17:04.561Z,4.80
2018-02-25T11:19:31.577Z,4.80
2018-02-25T11:21:59.366Z,4.80
2018-02-25T11:24:26.400Z,4.80
2018-02-25T11:26:53.430Z,4.80
2018-02-25T11:29:20.432Z,4.90
2018-02-25T11:31:47.473Z,4.80
2018-02-25T11:34:14.559Z,4.80
2018-02-25T11:36:42.350Z,4.90
2018-02-25T11:39:09.751Z,4.80
2018-02-25T11:41:37.794Z,4.90
2018-02-25T11:44:05.036Z,4.80
2018-02-25T11:46:32.826Z,4.90
2018-02-25T11:48:59.894Z,4.90
2018-02-25T11:51:26.947Z,4.90
2018-02-25T11:53:53.981Z,4.90
2018-02-25T11:56:21.767Z,4.90
2018-02-25T11:58:49.706Z,4.90
2018-02-25T12:01:17.549Z,4.90
2018-02-25T12:03:45.318Z,4.90
2018-02-25T12:06:12.385Z,4.90
2018-02-25T12:08:39.449Z,4.90
2018-02-25T12:11:06.550Z,5.00
2018-02-25T12:13:34.428Z,4.90
2018-02-25T12:16:01.484Z,4.90
2018-02-25T12:18:28.500Z,4.90
2018-02-25T12:20:55.523Z,4.90
2018-02-25T12:23:22.565Z,4.90
2018-02-25T12:25:49.584Z,5.00
2018-02-25T12:28:16.662Z,4.90
2018-02-25T12:30:44.526Z,5.10
2018-02-25T12:33:11.527Z,5.10
2018-02-25T12:35:38.564Z,5.10
2018-02-25T12:38:05.576Z,5.10
2018-02-25T12:40:33.438Z,5.10
2018-02-25T12:43:00.524Z,5.10
2018-02-25T12:45:28.305Z,5.10
2018-02-25T12:47:55.477Z,5.10
2018-02-25T12:50:22.503Z,5.10
2018-02-25T12:52:50.346Z,5.10
2018-02-25T12:55:17.429Z,5.10
2018-02-25T12:57:44.444Z,5.10
2018-02-25T13:00:12.146Z,5.10
2018-02-25T13:02:40.082Z,5.10
2018-02-25T13:05:07.095Z,5.10
2018-02-25T13:07:34.182Z,5.10
2018-02-25T13:10:01.283Z,5.10
2018-02-25T13:12:28.339Z,5.20
2018-02-25T13:14:55.348Z,5.20
2018-02-25T13:17:22.489Z,5.20
2018-02-25T13:19:49.491Z,5.20
2018-02-25T13:22:16.537Z,5.20
2018-02-25T13:24:43.639Z,5.20
2018-02-25T13:27:11.020Z,5.20
2018-02-25T13:29:38.817Z,5.20
2018-02-25T13:32:07.466Z,5.20
2018-02-25T13:34:35.258Z,5.20
2018-02-25T13:37:03.071Z,5.20
2018-02-25T13:39:30.098Z,5.20
2018-02-25T13:41:57.914Z,5.20
2018-02-25T13:44:24.984Z,5.20
2018-02-25T13:46:52.013Z,5.20
2018-02-25T13:49:19.023Z,5.20
2018-02-25T13:51:46.027Z,5.20
2018-02-25T13:54:13.128Z,5.20
2018-02-25T13:56:40.939Z,5.20
2018-02-25T13:59:07.959Z,5.20
2018-02-25T14:01:35.033Z,5.30
2018-02-25T14:04:02.108Z,5.30
2018-02-25T14:06:29.930Z,5.30
2018-02-25T14:08:56.937Z,5.30
2018-02-25T14:11:24.702Z,5.30
2018-02-25T14:13:51.704Z,5.30
2018-02-25T14:16:18.795Z,5.30
2018-02-25T14:18:46.568Z,5.30
2018-02-25T14:21:15.080Z,5.30
2018-02-25T14:23:43.709Z,5.30
2018-02-25T14:26:11.478Z,5.30
2018-02-25T14:28:38.537Z,5.30
2018-02-25T14:31:05.534Z,5.30
2018-02-25T14:33:32.536Z,5.30
2018-02-25T14:36:00.298Z,5.30
2018-02-25T14:38:27.304Z,5.30
2018-02-25T14:40:54.305Z,5.30
2018-02-25T14:43:21.327Z,5.30
2018-02-25T14:45:49.178Z,5.30
2018-02-25T14:48:16.179Z,5.30
2018-02-25T14:50:43.969Z,5.30
2018-02-25T14:53:10.997Z,5.30
2018-02-25T14:55:38.853Z,5.30
2018-02-25T14:58:05.958Z,5.30
2018-02-25T15:00:32.997Z,5.30
2018-02-25T15:03:00.012Z,5.30
2018-02-25T15:05:27.812Z,5.30
2018-02-25T15:07:55.635Z,5.30
2018-02-25T15:10:22.693Z,5.30
2018-02-25T15:12:50.504Z,5.30
2018-02-25T15:15:17.517Z,5.30
2018-02-25T15:17:44.520Z,5.30
2018-02-25T15:20:11.549Z,5.30
2018-02-25T15:22:38.870Z,5.30
2018-02-25T15:25:05.972Z,5.30
2018-02-25T15:27:32.988Z,5.30
2018-02-25T15:30:00.065Z,5.30
2018-02-25T15:32:27.069Z,5.30
2018-02-25T15:34:54.829Z,5.30
2018-02-25T15:37:21.877Z,5.20
2018-02-25T15:39:49.328Z,5.30
2018-02-25T15:42:17.129Z,5.30
2018-02-25T15:44:45.018Z,5.30
2018-02-25T15:47:12.828Z,5.30
2018-02-25T15:49:39.941Z,5.30
2018-02-25T15:52:06.979Z,5.30
2018-02-25T15:54:33.989Z,5.30
2018-02-25T15:57:01.022Z,5.30
2018-02-25T15:59:28.027Z,5.30
2018-02-25T16:01:55.140Z,5.20
2018-02-25T16:04:22.176Z,5.30
2018-02-25T16:06:49.262Z,5.30
2018-02-25T16:09:16.432Z,5.30
2018-02-25T16:11:43.451Z,5.30
2018-02-25T16:14:11.231Z,5.30
2018-02-25T16:16:38.238Z,5.40
2018-02-25T16:19:05.300Z,5.40
2018-02-25T16:21:33.147Z,5.30
2018-02-25T16:24:00.163Z,5.30
2018-02-25T16:26:27.930Z,5.40
2018-02-25T16:28:55.021Z,5.40
2018-02-25T16:31:21.998Z,5.30
2018-02-25T16:33:49.010Z,5.30
2018-02-25T16:36:16.770Z,5.30
2018-02-25T16:38:43.845Z,5.30
2018-02-25T16:41:10.854Z,5.30
2018-02-25T16:43:37.867Z,5.30
2018-02-25T16:46:04.915Z,5.30
2018-02-25T16:48:32.689Z,5.30
2018-02-25T16:50:59.748Z,5.30
2018-02-25T16:53:26.862Z,5.30
2018-02-25T16:55:54.646Z,5.30
2018-02-25T16:58:21.638Z,5.30
2018-02-25T17:00:49.449Z,5.30
2018-02-25T17:03:16.490Z,5.20
2018-02-25T17:05:43.508Z,5.30
2018-02-25T17:08:10.524Z,5.30
2018-02-25T17:10:38.333Z,5.30
2018-02-25T17:13:05.420Z,5.20
2018-02-25T17:15:33.289Z,5.30
2018-02-25T17:18:00.324Z,5.30
2018-02-25T17:20:27.339Z,5.30
2018-02-25T17:22:54.376Z,5.30
2018-02-25T17:25:22.137Z,5.30
2018-02-25T17:27:49.144Z,5.20
2018-02-25T17:30:16.266Z,5.30
2018-02-25T17:32:43.303Z,5.30
2018-02-25T17:35:10.501Z,5.20
2018-02-25T17:37:37.527Z,5.30
2018-02-25T17:40:04.599Z,5.20
2018-02-25T17:42:31.643Z,5.20
2018-02-25T17:44:58.653Z,5.20
2018-02-25T17:47:25.677Z,5.20
2018-02-25T17:49:52.826Z,5.20
2018-02-25T17:52:20.608Z,5.20
2018-02-25T17:54:47.672Z,5.20
2018-02-25T17:57:14.704Z,5.20
2018-02-25T17:59:41.715Z,5.20
2018-02-25T18:02:09.201Z,5.20
2018-02-25T18:04:36.226Z,5.20
2018-02-25T18:07:03.390Z,5.20
2018-02-25T18:09:31.165Z,5.20
2018-02-25T18:11:58.230Z,5.20
2018-02-25T18:14:25.401Z,5.20
2018-02-25T18:16:52.404Z,5.20
2018-02-25T18:19:19.500Z,5.20
2018-02-25T18:21:46.540Z,5.20
2018-02-25T18:24:13.612Z,5.20
2018-02-25T18:26:40.638Z,5.20
2018-02-25T18:29:07.675Z,5.20
2018-02-25T18:31:34.841Z,5.20
2018-02-25T18:34:01.919Z,5.20
2018-02-25T18:36:29.705Z,5.20
2018-02-25T18:38:56.854Z,5.20
2018-02-25T18:41:23.873Z,5.20
2018-02-25T18:43:50.965Z,5.20
2018-02-25T18:46:19.584Z,5.20
2018-02-25T18:48:46.599Z,5.20
2018-02-25T18:51:13.651Z,5.20
2018-02-25T18:53:41.535Z,5.10
2018-02-25T18:56:08.565Z,5.10
2018-02-25T18:58:35.688Z,5.20
2018-02-25T19:01:02.774Z,5.20
2018-02-25T19:03:29.789Z,5.10
2018-02-25T19:05:56.927Z,5.20
2018-02-25T19:08:23.989Z,5.20
2018-02-25T19:10:51.066Z,5.20
2018-02-25T19:13:18.976Z,5.20
2018-02-25T19:15:46.897Z,5.10
2018-02-25T19:18:13.903Z,5.20
2018-02-25T19:20:41.140Z,5.10
2018-02-25T19:23:08.165Z,5.20
2018-02-25T19:25:35.282Z,5.10
2018-02-25T19:28:02.289Z,5.10
2018-02-25T19:30:30.098Z,5.10
2018-02-25T19:32:57.191Z,5.10
2018-02-25T19:35:24.229Z,5.10
2018-02-25T19:37:57.187Z,5.10
2018-02-25T19:40:30.107Z,5.10
2018-02-25T19:42:57.229Z,5.10
2018-02-25T19:45:25.125Z,5.20
2018-02-25T19:47:53.712Z,5.20
2018-02-25T19:50:20.830Z,5.10
2018-02-25T19:52:48.604Z,5.10
2018-02-25T19:55:15.655Z,5.10
2018-02-25T19:57:42.687Z,5.20
2018-02-25T20:05:35.734Z,5.20
2018-02-25T20:08:02.816Z,5.20
2018-02-25T20:10:29.842Z,5.10
2018-02-25T20:12:57.605Z,5.10
2018-02-25T20:15:24.621Z,5.10
2018-02-25T20:17:51.624Z,5.10
2018-02-25T20:20:18.612Z,5.10
2018-02-25T20:22:45.644Z,5.10
2018-02-25T20:25:12.709Z,5.10
2018-02-25T20:27:39.761Z,5.10
2018-02-25T20:30:07.649Z,5.10
2018-02-25T20:32:35.504Z,5.10
2018-02-25T20:35:02.590Z,5.10
2018-02-25T20:37:30.401Z,5.10
2018-02-25T20:39:57.406Z,5.10
2018-02-25T20:42:24.417Z,5.10
2018-02-25T20:44:51.487Z,5.00
2018-02-25T20:47:18.514Z,5.10
2018-02-25T20:49:45.630Z,5.10
2018-02-25T20:52:12.627Z,5.10
2018-02-25T20:54:39.653Z,5.10
2018-02-25T20:57:06.688Z,5.10
2018-02-25T20:59:34.551Z,5.10
2018-02-25T21:02:01.616Z,5.00
2018-02-25T21:04:29.381Z,5.00
2018-02-25T21:06:56.489Z,5.00
2018-02-25T21:09:23.565Z,5.00
2018-02-25T21:11:50.794Z,5.00
2018-02-25T21:14:18.675Z,5.10
2018-02-25T21:16:46.441Z,5.10
2018-02-25T21:19:13.524Z,5.00
2018-02-25T21:21:42.229Z,5.00
2018-02-25T21:24:09.258Z,5.00
2018-02-25T21:26:36.260Z,5.00
2018-02-25T21:36:18.655Z,5.00
2018-02-25T21:38:45.652Z,5.00
2018-02-25T21:41:13.523Z,5.00
2018-02-25T21:43:40.536Z,5.00
2018-02-25T21:46:07.682Z,5.00
2018-02-25T21:48:34.750Z,5.00
2018-02-25T21:51:01.780Z,5.00
2018-02-25T21:53:35.215Z,5.00
2018-02-25T21:56:07.998Z,5.00
2018-02-25T21:58:41.625Z,5.00
2018-02-25T22:01:15.255Z,5.00
2018-02-25T22:03:43.145Z,5.00
2018-02-25T22:06:10.923Z,5.00
2018-02-25T22:08:38.781Z,4.90
2018-02-25T22:11:05.816Z,4.90
2018-02-25T22:13:33.591Z,5.00
2018-02-25T22:16:00.629Z,4.90
2018-02-25T22:18:27.634Z,5.00
2018-02-25T22:20:54.647Z,5.00
2018-02-25T22:23:22.429Z,5.00
2018-02-25T22:25:49.471Z,4.90
2018-02-25T22:28:16.568Z,5.00
2018-02-25T22:30:43.628Z,5.00
2018-02-25T22:33:10.636Z,5.00
2018-02-25T22:35:37.718Z,5.00
2018-02-25T22:38:04.703Z,5.00
2018-02-25T22:40:31.731Z,4.90
2018-02-25T22:42:59.517Z,4.90
2018-02-25T22:45:26.604Z,4.90
2018-02-25T22:47:53.638Z,4.90
2018-02-25T22:50:20.686Z,4.90
2018-02-25T22:52:47.707Z,4.90
2018-02-25T22:55:14.786Z,4.90
2018-02-25T22:57:41.870Z,5.00
2018-02-25T23:00:08.904Z,4.90
2018-02-25T23:02:35.926Z,4.90
2018-02-25T23:05:03.687Z,4.90
2018-02-25T23:07:30.677Z,4.90
2018-02-25T23:09:57.691Z,4.90
2018-02-25T23:12:24.729Z,4.90
2018-02-25T23:14:52.502Z,4.90
2018-02-25T23:17:19.807Z,4.90
2018-02-25T23:19:47.597Z,4.90
2018-02-25T23:22:14.770Z,4.90
2018-02-25T23:24:42.673Z,4.90
2018-02-25T23:27:10.464Z,4.90
2018-02-25T23:29:37.468Z,4.80
2018-02-25T23:32:04.492Z,4.80
2018-02-25T23:34:31.494Z,4.90
2018-02-25T23:36:59.262Z,4.80
2018-02-25T23:39:26.264Z,4.90
2018-02-25T23:41:54.080Z,4.80
2018-02-25T23:44:21.903Z,4.90
2018-02-25T23:46:49.023Z,4.80
2018-02-25T23:49:16.091Z,4.80
2018-02-25T23:51:43.119Z,4.90
2018-02-25T23:54:11.097Z,4.80
2018-02-25T23:56:38.952Z,4.80
2018-02-25T23:59:05.976Z,4.80
